sensor_id;sensor_type;location;lat;lon;timestamp;P1;durP1;ratioP1;P2;durP2;ratioP2
72379;SDS011;60354;47.798;12.472;2024-03-25T00:01:37;1.42;;;0.75;;
72379;SDS011;60354;47.798;12.472;2024-03-25T00:04:03;0.88;;;0.70;;
72379;SDS011;60354;47.798;12.472;2024-03-25T00:06:28;0.85;;;0.52;;
72379;SDS011;60354;47.798;12.472;2024-03-25T00:08:58;1.80;;;0.70;;
72379;SDS011;60354;47.798;12.472;2024-03-25T00:11:25;1.05;;;0.70;;
72379;SDS011;60354;47.798;12.472;2024-03-25T00:13:50;3.08;;;0.82;;
72379;SDS011;60354;47.798;12.472;2024-03-25T00:17:13;2.25;;;0.85;;
72379;SDS011;60354;47.798;12.472;2024-03-25T00:23:42;2.28;;;0.85;;
72379;SDS011;60354;47.798;12.472;2024-03-25T00:26:22;2.67;;;1.00;;
72379;SDS011;60354;47.798;12.472;2024-03-25T00:29:11;3.90;;;1.00;;
72379;SDS011;60354;47.798;12.472;2024-03-25T00:31:36;2.88;;;0.98;;
72379;SDS011;60354;47.798;12.472;2024-03-25T00:34:20;4.35;;;1.20;;
72379;SDS011;60354;47.798;12.472;2024-03-25T00:36:53;7.97;;;1.40;;
72379;SDS011;60354;47.798;12.472;2024-03-25T00:43:47;3.72;;;0.90;;
72379;SDS011;60354;47.798;12.472;2024-03-25T00:46:25;2.67;;;1.23;;
72379;SDS011;60354;47.798;12.472;2024-03-25T00:49:23;5.20;;;1.10;;
72379;SDS011;60354;47.798;12.472;2024-03-25T00:56:25;2.88;;;0.82;;
72379;SDS011;60354;47.798;12.472;2024-03-25T01:22:47;4.10;;;1.58;;
72379;SDS011;60354;47.798;12.472;2024-03-25T01:26:04;2.30;;;1.20;;
72379;SDS011;60354;47.798;12.472;2024-03-25T01:43:39;3.65;;;1.00;;
72379;SDS011;60354;47.798;12.472;2024-03-25T01:50:28;2.90;;;1.10;;
72379;SDS011;60354;47.798;12.472;2024-03-25T01:57:57;3.05;;;1.15;;
72379;SDS011;60354;47.798;12.472;2024-03-25T02:04:01;2.60;;;1.10;;
72379;SDS011;60354;47.798;12.472;2024-03-25T02:07:41;3.78;;;1.20;;
72379;SDS011;60354;47.798;12.472;2024-03-25T02:14:30;4.00;;;1.15;;
72379;SDS011;60354;47.798;12.472;2024-03-25T02:18:02;2.97;;;1.10;;
72379;SDS011;60354;47.798;12.472;2024-03-25T02:23:41;2.45;;;1.10;;
72379;SDS011;60354;47.798;12.472;2024-03-25T02:33:51;2.25;;;1.23;;
72379;SDS011;60354;47.798;12.472;2024-03-25T02:36:32;2.42;;;0.98;;
72379;SDS011;60354;47.798;12.472;2024-03-25T02:43:20;1.67;;;1.00;;
72379;SDS011;60354;47.798;12.472;2024-03-25T02:46:44;2.63;;;1.27;;
72379;SDS011;60354;47.798;12.472;2024-03-25T02:59:25;1.40;;;0.95;;
72379;SDS011;60354;47.798;12.472;2024-03-25T03:17:10;1.55;;;1.10;;
72379;SDS011;60354;47.798;12.472;2024-03-25T03:23:30;2.55;;;1.00;;
72379;SDS011;60354;47.798;12.472;2024-03-25T03:27:00;2.45;;;1.00;;
72379;SDS011;60354;47.798;12.472;2024-03-25T03:29:45;1.80;;;1.10;;
72379;SDS011;60354;47.798;12.472;2024-03-25T03:32:35;2.75;;;1.25;;
72379;SDS011;60354;47.798;12.472;2024-03-25T03:35:13;3.35;;;1.02;;
72379;SDS011;60354;47.798;12.472;2024-03-25T03:37:49;1.65;;;1.17;;
72379;SDS011;60354;47.798;12.472;2024-03-25T03:44:24;4.05;;;1.10;;
72379;SDS011;60354;47.798;12.472;2024-03-25T03:46:59;1.75;;;0.90;;
72379;SDS011;60354;47.798;12.472;2024-03-25T03:56:44;2.08;;;0.95;;
72379;SDS011;60354;47.798;12.472;2024-03-25T04:03:23;2.88;;;1.10;;
72379;SDS011;60354;47.798;12.472;2024-03-25T04:05:55;1.88;;;0.95;;
72379;SDS011;60354;47.798;12.472;2024-03-25T04:11:59;1.95;;;1.17;;
72379;SDS011;60354;47.798;12.472;2024-03-25T04:14:26;2.63;;;1.02;;
72379;SDS011;60354;47.798;12.472;2024-03-25T04:16:57;3.00;;;1.10;;
72379;SDS011;60354;47.798;12.472;2024-03-25T04:19:46;2.30;;;1.10;;
72379;SDS011;60354;47.798;12.472;2024-03-25T04:22:14;2.30;;;1.23;;
72379;SDS011;60354;47.798;12.472;2024-03-25T04:24:42;3.75;;;1.20;;
72379;SDS011;60354;47.798;12.472;2024-03-25T04:27:17;3.85;;;1.42;;
72379;SDS011;60354;47.798;12.472;2024-03-25T04:29:55;3.30;;;1.17;;
72379;SDS011;60354;47.798;12.472;2024-03-25T04:32:20;2.22;;;1.30;;
72379;SDS011;60354;47.798;12.472;2024-03-25T04:34:52;2.42;;;1.30;;
72379;SDS011;60354;47.798;12.472;2024-03-25T04:37:27;3.03;;;1.13;;
72379;SDS011;60354;47.798;12.472;2024-03-25T04:39:53;3.38;;;1.25;;
72379;SDS011;60354;47.798;12.472;2024-03-25T04:42:22;2.95;;;1.00;;
72379;SDS011;60354;47.798;12.472;2024-03-25T04:44:49;2.28;;;1.23;;
72379;SDS011;60354;47.798;12.472;2024-03-25T04:47:18;1.75;;;1.10;;
72379;SDS011;60354;47.798;12.472;2024-03-25T04:49:55;1.95;;;1.05;;
72379;SDS011;60354;47.798;12.472;2024-03-25T04:52:40;1.35;;;0.80;;
72379;SDS011;60354;47.798;12.472;2024-03-25T04:55:10;3.03;;;1.30;;
72379;SDS011;60354;47.798;12.472;2024-03-25T04:58:02;1.85;;;1.20;;
72379;SDS011;60354;47.798;12.472;2024-03-25T05:03:51;1.85;;;0.90;;
72379;SDS011;60354;47.798;12.472;2024-03-25T05:06:20;2.08;;;1.20;;
72379;SDS011;60354;47.798;12.472;2024-03-25T05:08:48;3.22;;;1.48;;
72379;SDS011;60354;47.798;12.472;2024-03-25T05:11:19;2.60;;;1.33;;
72379;SDS011;60354;47.798;12.472;2024-03-25T05:13:49;2.80;;;1.30;;
72379;SDS011;60354;47.798;12.472;2024-03-25T05:16:21;3.38;;;1.40;;
72379;SDS011;60354;47.798;12.472;2024-03-25T05:18:52;1.77;;;1.10;;
72379;SDS011;60354;47.798;12.472;2024-03-25T05:21:17;1.55;;;1.05;;
72379;SDS011;60354;47.798;12.472;2024-03-25T05:24:09;2.15;;;1.02;;
72379;SDS011;60354;47.798;12.472;2024-03-25T05:27:39;8.00;;;4.75;;
72379;SDS011;60354;47.798;12.472;2024-03-25T05:30:30;1.98;;;1.42;;
72379;SDS011;60354;47.798;12.472;2024-03-25T05:33:14;3.60;;;1.70;;
72379;SDS011;60354;47.798;12.472;2024-03-25T05:35:48;5.30;;;2.00;;
72379;SDS011;60354;47.798;12.472;2024-03-25T05:38:45;5.55;;;1.50;;
72379;SDS011;60354;47.798;12.472;2024-03-25T05:41:16;3.67;;;1.50;;
72379;SDS011;60354;47.798;12.472;2024-03-25T05:43:44;1.80;;;1.20;;
72379;SDS011;60354;47.798;12.472;2024-03-25T05:46:36;1.98;;;1.20;;
72379;SDS011;60354;47.798;12.472;2024-03-25T05:49:08;2.40;;;1.40;;
72379;SDS011;60354;47.798;12.472;2024-03-25T05:54:30;1.25;;;1.00;;
72379;SDS011;60354;47.798;12.472;2024-03-25T06:00:16;3.08;;;1.15;;
72379;SDS011;60354;47.798;12.472;2024-03-25T06:05:57;1.90;;;1.20;;
72379;SDS011;60354;47.798;12.472;2024-03-25T06:08:23;2.13;;;1.10;;
72379;SDS011;60354;47.798;12.472;2024-03-25T06:11:27;2.30;;;1.08;;
72379;SDS011;60354;47.798;12.472;2024-03-25T06:14:10;5.15;;;1.05;;
72379;SDS011;60354;47.798;12.472;2024-03-25T06:16:38;2.08;;;1.20;;
72379;SDS011;60354;47.798;12.472;2024-03-25T06:22:16;2.35;;;1.38;;
72379;SDS011;60354;47.798;12.472;2024-03-25T06:24:52;1.73;;;1.15;;
72379;SDS011;60354;47.798;12.472;2024-03-25T06:27:27;2.20;;;1.10;;
72379;SDS011;60354;47.798;12.472;2024-03-25T06:34:00;2.70;;;1.17;;
72379;SDS011;60354;47.798;12.472;2024-03-25T06:36:52;2.42;;;1.20;;
72379;SDS011;60354;47.798;12.472;2024-03-25T06:39:32;2.20;;;1.40;;
72379;SDS011;60354;47.798;12.472;2024-03-25T06:51:13;2.58;;;1.30;;
72379;SDS011;60354;47.798;12.472;2024-03-25T06:53:39;2.55;;;1.23;;
72379;SDS011;60354;47.798;12.472;2024-03-25T06:56:07;2.63;;;1.33;;
72379;SDS011;60354;47.798;12.472;2024-03-25T06:58:40;2.58;;;1.30;;
72379;SDS011;60354;47.798;12.472;2024-03-25T07:01:08;4.43;;;1.50;;
72379;SDS011;60354;47.798;12.472;2024-03-25T07:03:35;1.42;;;1.00;;
72379;SDS011;60354;47.798;12.472;2024-03-25T07:06:00;2.95;;;1.60;;
72379;SDS011;60354;47.798;12.472;2024-03-25T07:08:29;3.65;;;1.15;;
72379;SDS011;60354;47.798;12.472;2024-03-25T07:10:58;1.92;;;1.10;;
72379;SDS011;60354;47.798;12.472;2024-03-25T07:13:25;3.58;;;1.20;;
72379;SDS011;60354;47.798;12.472;2024-03-25T07:15:51;2.30;;;1.08;;
72379;SDS011;60354;47.798;12.472;2024-03-25T07:18:17;1.70;;;0.98;;
72379;SDS011;60354;47.798;12.472;2024-03-25T07:20:43;6.57;;;1.80;;
72379;SDS011;60354;47.798;12.472;2024-03-25T07:23:09;5.15;;;2.42;;
72379;SDS011;60354;47.798;12.472;2024-03-25T07:25:35;3.35;;;1.98;;
72379;SDS011;60354;47.798;12.472;2024-03-25T07:28:01;3.78;;;2.33;;
72379;SDS011;60354;47.798;12.472;2024-03-25T07:30:28;4.10;;;2.30;;
72379;SDS011;60354;47.798;12.472;2024-03-25T07:32:54;2.33;;;1.60;;
72379;SDS011;60354;47.798;12.472;2024-03-25T07:35:20;2.03;;;1.30;;
72379;SDS011;60354;47.798;12.472;2024-03-25T07:37:45;4.05;;;1.48;;
72379;SDS011;60354;47.798;12.472;2024-03-25T07:40:11;2.22;;;1.10;;
72379;SDS011;60354;47.798;12.472;2024-03-25T07:42:37;2.30;;;1.27;;
72379;SDS011;60354;47.798;12.472;2024-03-25T07:45:05;2.28;;;1.20;;
72379;SDS011;60354;47.798;12.472;2024-03-25T07:47:31;2.35;;;1.30;;
72379;SDS011;60354;47.798;12.472;2024-03-25T07:49:58;2.10;;;1.35;;
72379;SDS011;60354;47.798;12.472;2024-03-25T07:52:26;2.78;;;1.30;;
72379;SDS011;60354;47.798;12.472;2024-03-25T07:54:53;1.63;;;0.80;;
72379;SDS011;60354;47.798;12.472;2024-03-25T07:57:19;2.38;;;0.82;;
72379;SDS011;60354;47.798;12.472;2024-03-25T07:59:44;5.63;;;1.10;;
72379;SDS011;60354;47.798;12.472;2024-03-25T08:02:10;0.98;;;0.82;;
72379;SDS011;60354;47.798;12.472;2024-03-25T08:04:35;2.40;;;0.90;;
72379;SDS011;60354;47.798;12.472;2024-03-25T08:07:01;1.25;;;0.80;;
72379;SDS011;60354;47.798;12.472;2024-03-25T08:09:27;2.33;;;0.90;;
72379;SDS011;60354;47.798;12.472;2024-03-25T08:11:53;1.77;;;0.90;;
72379;SDS011;60354;47.798;12.472;2024-03-25T08:14:18;1.52;;;0.90;;
72379;SDS011;60354;47.798;12.472;2024-03-25T08:16:44;2.33;;;1.00;;
72379;SDS011;60354;47.798;12.472;2024-03-25T08:19:10;4.82;;;1.25;;
72379;SDS011;60354;47.798;12.472;2024-03-25T08:21:35;4.32;;;0.95;;
72379;SDS011;60354;47.798;12.472;2024-03-25T08:24:01;1.63;;;0.90;;
72379;SDS011;60354;47.798;12.472;2024-03-25T08:26:26;2.58;;;1.20;;
72379;SDS011;60354;47.798;12.472;2024-03-25T08:28:51;1.77;;;0.73;;
72379;SDS011;60354;47.798;12.472;2024-03-25T08:31:17;2.10;;;0.80;;
72379;SDS011;60354;47.798;12.472;2024-03-25T08:33:42;2.40;;;0.95;;
72379;SDS011;60354;47.798;12.472;2024-03-25T08:36:08;2.60;;;0.90;;
72379;SDS011;60354;47.798;12.472;2024-03-25T08:38:34;3.35;;;1.20;;
72379;SDS011;60354;47.798;12.472;2024-03-25T08:40:59;2.15;;;0.80;;
72379;SDS011;60354;47.798;12.472;2024-03-25T08:43:25;1.40;;;0.90;;
72379;SDS011;60354;47.798;12.472;2024-03-25T08:45:51;2.30;;;1.20;;
72379;SDS011;60354;47.798;12.472;2024-03-25T08:48:16;2.88;;;0.80;;
72379;SDS011;60354;47.798;12.472;2024-03-25T08:50:42;1.63;;;0.80;;
72379;SDS011;60354;47.798;12.472;2024-03-25T08:53:08;3.60;;;0.88;;
72379;SDS011;60354;47.798;12.472;2024-03-25T08:55:33;3.35;;;0.90;;
72379;SDS011;60354;47.798;12.472;2024-03-25T08:58:02;1.88;;;0.80;;
72379;SDS011;60354;47.798;12.472;2024-03-25T09:00:28;3.40;;;0.93;;
72379;SDS011;60354;47.798;12.472;2024-03-25T09:02:53;2.33;;;1.00;;
72379;SDS011;60354;47.798;12.472;2024-03-25T09:05:19;1.70;;;0.60;;
72379;SDS011;60354;47.798;12.472;2024-03-25T09:07:45;2.63;;;1.00;;
72379;SDS011;60354;47.798;12.472;2024-03-25T09:10:15;2.45;;;0.90;;
72379;SDS011;60354;47.798;12.472;2024-03-25T09:12:59;3.15;;;1.10;;
72379;SDS011;60354;47.798;12.472;2024-03-25T09:15:24;3.90;;;1.27;;
72379;SDS011;60354;47.798;12.472;2024-03-25T09:17:49;3.00;;;0.98;;
72379;SDS011;60354;47.798;12.472;2024-03-25T09:20:15;2.67;;;1.08;;
72379;SDS011;60354;47.798;12.472;2024-03-25T09:22:46;1.80;;;0.85;;
72379;SDS011;60354;47.798;12.472;2024-03-25T09:25:14;2.80;;;0.98;;
72379;SDS011;60354;47.798;12.472;2024-03-25T09:27:40;5.03;;;1.05;;
72379;SDS011;60354;47.798;12.472;2024-03-25T09:30:05;1.92;;;0.80;;
72379;SDS011;60354;47.798;12.472;2024-03-25T09:32:34;2.75;;;1.00;;
72379;SDS011;60354;47.798;12.472;2024-03-25T09:35:00;2.47;;;0.98;;
72379;SDS011;60354;47.798;12.472;2024-03-25T09:37:26;1.63;;;0.80;;
72379;SDS011;60354;47.798;12.472;2024-03-25T09:39:51;2.05;;;0.93;;
72379;SDS011;60354;47.798;12.472;2024-03-25T09:42:27;2.67;;;0.88;;
72379;SDS011;60354;47.798;12.472;2024-03-25T09:44:55;2.03;;;0.80;;
72379;SDS011;60354;47.798;12.472;2024-03-25T09:47:22;1.00;;;0.80;;
72379;SDS011;60354;47.798;12.472;2024-03-25T09:49:49;2.35;;;1.00;;
72379;SDS011;60354;47.798;12.472;2024-03-25T09:52:15;1.58;;;0.70;;
72379;SDS011;60354;47.798;12.472;2024-03-25T09:54:41;2.58;;;0.90;;
72379;SDS011;60354;47.798;12.472;2024-03-25T09:57:07;2.20;;;0.75;;
72379;SDS011;60354;47.798;12.472;2024-03-25T09:59:33;1.73;;;0.90;;
72379;SDS011;60354;47.798;12.472;2024-03-25T10:01:59;2.70;;;0.88;;
72379;SDS011;60354;47.798;12.472;2024-03-25T10:04:27;4.20;;;0.90;;
72379;SDS011;60354;47.798;12.472;2024-03-25T10:06:52;2.42;;;0.88;;
72379;SDS011;60354;47.798;12.472;2024-03-25T10:09:19;2.35;;;0.80;;
72379;SDS011;60354;47.798;12.472;2024-03-25T10:11:46;2.63;;;0.82;;
72379;SDS011;60354;47.798;12.472;2024-03-25T10:14:14;2.22;;;0.82;;
72379;SDS011;60354;47.798;12.472;2024-03-25T10:16:41;1.38;;;0.80;;
72379;SDS011;60354;47.798;12.472;2024-03-25T10:19:07;1.50;;;0.80;;
72379;SDS011;60354;47.798;12.472;2024-03-25T10:21:33;2.55;;;0.70;;
72379;SDS011;60354;47.798;12.472;2024-03-25T10:23:59;2.25;;;0.90;;
72379;SDS011;60354;47.798;12.472;2024-03-25T10:26:28;1.17;;;0.75;;
72379;SDS011;60354;47.798;12.472;2024-03-25T10:29:03;6.97;;;1.00;;
72379;SDS011;60354;47.798;12.472;2024-03-25T10:31:29;2.60;;;0.70;;
72379;SDS011;60354;47.798;12.472;2024-03-25T10:33:56;1.52;;;0.70;;
72379;SDS011;60354;47.798;12.472;2024-03-25T10:36:22;2.17;;;0.80;;
72379;SDS011;60354;47.798;12.472;2024-03-25T10:38:52;1.75;;;0.77;;
72379;SDS011;60354;47.798;12.472;2024-03-25T10:41:23;1.17;;;0.60;;
72379;SDS011;60354;47.798;12.472;2024-03-25T10:43:51;0.70;;;0.65;;
72379;SDS011;60354;47.798;12.472;2024-03-25T10:46:19;1.88;;;0.80;;
72379;SDS011;60354;47.798;12.472;2024-03-25T10:48:59;1.00;;;0.70;;
72379;SDS011;60354;47.798;12.472;2024-03-25T10:51:32;1.52;;;0.63;;
72379;SDS011;60354;47.798;12.472;2024-03-25T10:54:00;1.70;;;0.73;;
72379;SDS011;60354;47.798;12.472;2024-03-25T10:56:27;1.52;;;0.73;;
72379;SDS011;60354;47.798;12.472;2024-03-25T10:58:53;0.82;;;0.63;;
72379;SDS011;60354;47.798;12.472;2024-03-25T11:01:19;1.52;;;0.70;;
72379;SDS011;60354;47.798;12.472;2024-03-25T11:03:48;2.28;;;0.70;;
72379;SDS011;60354;47.798;12.472;2024-03-25T11:06:14;1.77;;;0.70;;
72379;SDS011;60354;47.798;12.472;2024-03-25T11:08:42;1.30;;;0.65;;
72379;SDS011;60354;47.798;12.472;2024-03-25T11:11:12;1.98;;;0.70;;
72379;SDS011;60354;47.798;12.472;2024-03-25T11:13:38;2.03;;;0.77;;
72379;SDS011;60354;47.798;12.472;2024-03-25T11:16:04;1.77;;;0.85;;
72379;SDS011;60354;47.798;12.472;2024-03-25T11:18:31;1.73;;;0.90;;
72379;SDS011;60354;47.798;12.472;2024-03-25T11:21:02;2.55;;;0.80;;
72379;SDS011;60354;47.798;12.472;2024-03-25T11:23:36;1.48;;;0.70;;
72379;SDS011;60354;47.798;12.472;2024-03-25T11:26:18;1.67;;;0.93;;
72379;SDS011;60354;47.798;12.472;2024-03-25T11:31:20;0.82;;;0.57;;
72379;SDS011;60354;47.798;12.472;2024-03-25T11:33:47;1.98;;;0.80;;
72379;SDS011;60354;47.798;12.472;2024-03-25T11:36:12;1.58;;;0.80;;
72379;SDS011;60354;47.798;12.472;2024-03-25T11:38:38;1.15;;;0.70;;
72379;SDS011;60354;47.798;12.472;2024-03-25T11:41:07;1.65;;;0.73;;
72379;SDS011;60354;47.798;12.472;2024-03-25T11:43:33;2.55;;;0.90;;
72379;SDS011;60354;47.798;12.472;2024-03-25T11:45:58;2.45;;;0.95;;
72379;SDS011;60354;47.798;12.472;2024-03-25T11:48:24;2.83;;;0.90;;
72379;SDS011;60354;47.798;12.472;2024-03-25T11:50:49;1.80;;;1.02;;
72379;SDS011;60354;47.798;12.472;2024-03-25T11:53:18;2.90;;;1.17;;
72379;SDS011;60354;47.798;12.472;2024-03-25T11:55:46;1.77;;;0.82;;
72379;SDS011;60354;47.798;12.472;2024-03-25T11:58:13;2.28;;;0.90;;
72379;SDS011;60354;47.798;12.472;2024-03-25T12:00:46;0.80;;;0.70;;
72379;SDS011;60354;47.798;12.472;2024-03-25T12:03:15;2.38;;;1.00;;
72379;SDS011;60354;47.798;12.472;2024-03-25T12:05:44;2.03;;;0.88;;
72379;SDS011;60354;47.798;12.472;2024-03-25T12:08:09;3.20;;;0.98;;
72379;SDS011;60354;47.798;12.472;2024-03-25T12:10:36;1.75;;;0.93;;
72379;SDS011;60354;47.798;12.472;2024-03-25T12:13:22;1.40;;;0.80;;
72379;SDS011;60354;47.798;12.472;2024-03-25T12:15:50;1.88;;;0.80;;
72379;SDS011;60354;47.798;12.472;2024-03-25T12:18:15;1.50;;;0.80;;
72379;SDS011;60354;47.798;12.472;2024-03-25T12:20:41;1.67;;;0.90;;
72379;SDS011;60354;47.798;12.472;2024-03-25T12:23:07;2.38;;;1.00;;
72379;SDS011;60354;47.798;12.472;2024-03-25T12:25:33;1.55;;;0.90;;
72379;SDS011;60354;47.798;12.472;2024-03-25T12:27:58;3.38;;;0.90;;
72379;SDS011;60354;47.798;12.472;2024-03-25T12:30:24;1.48;;;0.80;;
72379;SDS011;60354;47.798;12.472;2024-03-25T12:32:50;3.00;;;0.80;;
72379;SDS011;60354;47.798;12.472;2024-03-25T12:35:16;1.52;;;0.77;;
72379;SDS011;60354;47.798;12.472;2024-03-25T12:37:55;1.67;;;0.90;;
72379;SDS011;60354;47.798;12.472;2024-03-25T12:40:27;4.22;;;1.00;;
72379;SDS011;60354;47.798;12.472;2024-03-25T12:42:53;2.25;;;0.90;;
72379;SDS011;60354;47.798;12.472;2024-03-25T12:45:20;1.77;;;1.00;;
72379;SDS011;60354;47.798;12.472;2024-03-25T12:47:45;1.95;;;1.10;;
72379;SDS011;60354;47.798;12.472;2024-03-25T12:50:11;1.90;;;0.80;;
72379;SDS011;60354;47.798;12.472;2024-03-25T12:52:37;2.20;;;0.93;;
72379;SDS011;60354;47.798;12.472;2024-03-25T12:55:02;1.75;;;0.80;;
72379;SDS011;60354;47.798;12.472;2024-03-25T12:57:28;1.88;;;1.00;;
72379;SDS011;60354;47.798;12.472;2024-03-25T12:59:54;1.23;;;0.80;;
72379;SDS011;60354;47.798;12.472;2024-03-25T13:02:20;1.40;;;0.88;;
72379;SDS011;60354;47.798;12.472;2024-03-25T13:04:45;1.95;;;0.80;;
72379;SDS011;60354;47.798;12.472;2024-03-25T13:07:11;2.13;;;0.95;;
72379;SDS011;60354;47.798;12.472;2024-03-25T13:09:36;3.13;;;1.02;;
72379;SDS011;60354;47.798;12.472;2024-03-25T13:12:02;1.55;;;0.80;;
72379;SDS011;60354;47.798;12.472;2024-03-25T13:14:27;1.17;;;0.80;;
72379;SDS011;60354;47.798;12.472;2024-03-25T13:16:53;2.42;;;0.90;;
72379;SDS011;60354;47.798;12.472;2024-03-25T13:19:18;2.25;;;0.90;;
72379;SDS011;60354;47.798;12.472;2024-03-25T13:21:44;1.25;;;0.90;;
72379;SDS011;60354;47.798;12.472;2024-03-25T13:24:09;1.85;;;0.88;;
72379;SDS011;60354;47.798;12.472;2024-03-25T13:26:35;2.53;;;0.77;;
72379;SDS011;60354;47.798;12.472;2024-03-25T13:29:00;1.50;;;0.90;;
72379;SDS011;60354;47.798;12.472;2024-03-25T13:31:26;2.10;;;0.98;;
72379;SDS011;60354;47.798;12.472;2024-03-25T13:33:51;1.33;;;0.80;;
72379;SDS011;60354;47.798;12.472;2024-03-25T13:36:17;1.63;;;0.90;;
72379;SDS011;60354;47.798;12.472;2024-03-25T13:38:43;2.83;;;1.33;;
72379;SDS011;60354;47.798;12.472;2024-03-25T13:41:09;1.88;;;0.70;;
72379;SDS011;60354;47.798;12.472;2024-03-25T13:43:35;3.17;;;0.90;;
72379;SDS011;60354;47.798;12.472;2024-03-25T13:46:00;3.10;;;0.80;;
72379;SDS011;60354;47.798;12.472;2024-03-25T13:48:26;2.10;;;0.80;;
72379;SDS011;60354;47.798;12.472;2024-03-25T13:50:54;1.40;;;0.65;;
72379;SDS011;60354;47.798;12.472;2024-03-25T13:53:20;2.10;;;0.80;;
72379;SDS011;60354;47.798;12.472;2024-03-25T13:55:46;1.42;;;0.75;;
72379;SDS011;60354;47.798;12.472;2024-03-25T13:58:11;2.78;;;0.90;;
72379;SDS011;60354;47.798;12.472;2024-03-25T14:00:37;1.63;;;0.75;;
72379;SDS011;60354;47.798;12.472;2024-03-25T14:03:03;1.67;;;0.80;;
72379;SDS011;60354;47.798;12.472;2024-03-25T14:05:29;1.48;;;0.75;;
72379;SDS011;60354;47.798;12.472;2024-03-25T14:07:54;1.98;;;0.75;;
72379;SDS011;60354;47.798;12.472;2024-03-25T14:10:21;1.55;;;0.70;;
72379;SDS011;60354;47.798;12.472;2024-03-25T14:12:47;1.27;;;0.68;;
72379;SDS011;60354;47.798;12.472;2024-03-25T14:15:12;1.73;;;0.60;;
72379;SDS011;60354;47.798;12.472;2024-03-25T14:17:38;2.03;;;0.90;;
72379;SDS011;60354;47.798;12.472;2024-03-25T14:20:03;2.47;;;0.95;;
72379;SDS011;60354;47.798;12.472;2024-03-25T14:22:31;1.50;;;0.70;;
72379;SDS011;60354;47.798;12.472;2024-03-25T14:24:57;1.48;;;0.80;;
72379;SDS011;60354;47.798;12.472;2024-03-25T14:27:24;1.58;;;0.90;;
72379;SDS011;60354;47.798;12.472;2024-03-25T14:29:49;1.38;;;0.60;;
72379;SDS011;60354;47.798;12.472;2024-03-25T14:32:15;2.40;;;0.77;;
72379;SDS011;60354;47.798;12.472;2024-03-25T14:34:40;0.90;;;0.68;;
72379;SDS011;60354;47.798;12.472;2024-03-25T14:37:06;1.05;;;0.70;;
72379;SDS011;60354;47.798;12.472;2024-03-25T14:39:31;2.42;;;0.60;;
72379;SDS011;60354;47.798;12.472;2024-03-25T14:41:57;1.77;;;0.65;;
72379;SDS011;60354;47.798;12.472;2024-03-25T14:44:22;1.45;;;0.60;;
72379;SDS011;60354;47.798;12.472;2024-03-25T14:46:48;1.15;;;0.75;;
72379;SDS011;60354;47.798;12.472;2024-03-25T14:49:13;2.13;;;0.60;;
72379;SDS011;60354;47.798;12.472;2024-03-25T14:51:39;0.85;;;0.50;;
72379;SDS011;60354;47.798;12.472;2024-03-25T14:54:06;1.00;;;0.60;;
72379;SDS011;60354;47.798;12.472;2024-03-25T14:56:32;2.35;;;0.60;;
72379;SDS011;60354;47.798;12.472;2024-03-25T14:58:57;2.42;;;0.60;;
72379;SDS011;60354;47.798;12.472;2024-03-25T15:01:24;2.10;;;0.80;;
72379;SDS011;60354;47.798;12.472;2024-03-25T15:03:49;8.93;;;1.30;;
72379;SDS011;60354;47.798;12.472;2024-03-25T15:06:15;3.67;;;1.00;;
72379;SDS011;60354;47.798;12.472;2024-03-25T15:08:40;3.75;;;0.88;;
72379;SDS011;60354;47.798;12.472;2024-03-25T15:11:07;4.55;;;0.75;;
72379;SDS011;60354;47.798;12.472;2024-03-25T15:13:32;3.55;;;1.02;;
72379;SDS011;60354;47.798;12.472;2024-03-25T15:15:58;1.60;;;0.60;;
72379;SDS011;60354;47.798;12.472;2024-03-25T15:18:29;2.72;;;0.88;;
72379;SDS011;60354;47.798;12.472;2024-03-25T15:21:03;1.20;;;0.77;;
72379;SDS011;60354;47.798;12.472;2024-03-25T15:23:30;1.38;;;1.00;;
72379;SDS011;60354;47.798;12.472;2024-03-25T15:25:56;1.58;;;0.68;;
72379;SDS011;60354;47.798;12.472;2024-03-25T15:28:23;1.60;;;0.80;;
72379;SDS011;60354;47.798;12.472;2024-03-25T15:30:49;0.88;;;0.60;;
72379;SDS011;60354;47.798;12.472;2024-03-25T15:33:15;0.63;;;0.50;;
72379;SDS011;60354;47.798;12.472;2024-03-25T15:35:41;2.13;;;1.00;;
72379;SDS011;60354;47.798;12.472;2024-03-25T15:38:07;7.95;;;2.10;;
72379;SDS011;60354;47.798;12.472;2024-03-25T15:40:32;2.58;;;1.40;;
72379;SDS011;60354;47.798;12.472;2024-03-25T15:42:58;3.05;;;1.27;;
72379;SDS011;60354;47.798;12.472;2024-03-25T15:45:27;2.45;;;1.00;;
72379;SDS011;60354;47.798;12.472;2024-03-25T15:47:56;3.72;;;2.00;;
72379;SDS011;60354;47.798;12.472;2024-03-25T15:50:22;1.75;;;0.80;;
72379;SDS011;60354;47.798;12.472;2024-03-25T15:52:48;0.82;;;0.80;;
72379;SDS011;60354;47.798;12.472;2024-03-25T15:55:13;1.92;;;1.00;;
72379;SDS011;60354;47.798;12.472;2024-03-25T15:57:39;2.75;;;1.17;;
72379;SDS011;60354;47.798;12.472;2024-03-25T16:00:05;2.00;;;1.10;;
72379;SDS011;60354;47.798;12.472;2024-03-25T16:02:33;1.55;;;0.90;;
72379;SDS011;60354;47.798;12.472;2024-03-25T16:04:59;1.98;;;1.02;;
72379;SDS011;60354;47.798;12.472;2024-03-25T16:07:24;2.75;;;1.08;;
72379;SDS011;60354;47.798;12.472;2024-03-25T16:09:50;5.57;;;2.10;;
72379;SDS011;60354;47.798;12.472;2024-03-25T16:12:15;4.88;;;2.03;;
72379;SDS011;60354;47.798;12.472;2024-03-25T16:14:41;4.70;;;2.47;;
72379;SDS011;60354;47.798;12.472;2024-03-25T16:17:09;6.20;;;3.53;;
72379;SDS011;60354;47.798;12.472;2024-03-25T16:19:35;5.78;;;3.40;;
72379;SDS011;60354;47.798;12.472;2024-03-25T16:22:01;7.28;;;3.28;;
72379;SDS011;60354;47.798;12.472;2024-03-25T16:24:26;5.63;;;3.28;;
72379;SDS011;60354;47.798;12.472;2024-03-25T16:26:51;7.22;;;2.80;;
72379;SDS011;60354;47.798;12.472;2024-03-25T16:29:17;8.18;;;3.65;;
72379;SDS011;60354;47.798;12.472;2024-03-25T16:31:42;8.55;;;4.00;;
72379;SDS011;60354;47.798;12.472;2024-03-25T16:34:08;8.00;;;4.07;;
72379;SDS011;60354;47.798;12.472;2024-03-25T16:36:33;8.90;;;3.10;;
72379;SDS011;60354;47.798;12.472;2024-03-25T16:38:59;5.78;;;2.97;;
72379;SDS011;60354;47.798;12.472;2024-03-25T16:41:24;9.30;;;3.75;;
72379;SDS011;60354;47.798;12.472;2024-03-25T16:43:50;5.40;;;2.33;;
72379;SDS011;60354;47.798;12.472;2024-03-25T16:46:15;4.50;;;2.40;;
72379;SDS011;60354;47.798;12.472;2024-03-25T16:48:41;4.68;;;1.70;;
72379;SDS011;60354;47.798;12.472;2024-03-25T16:51:06;4.13;;;1.73;;
72379;SDS011;60354;47.798;12.472;2024-03-25T16:53:33;4.80;;;1.70;;
72379;SDS011;60354;47.798;12.472;2024-03-25T16:55:58;3.30;;;1.40;;
72379;SDS011;60354;47.798;12.472;2024-03-25T16:58:24;5.15;;;2.40;;
72379;SDS011;60354;47.798;12.472;2024-03-25T17:00:49;4.07;;;1.88;;
72379;SDS011;60354;47.798;12.472;2024-03-25T17:03:17;4.03;;;1.95;;
72379;SDS011;60354;47.798;12.472;2024-03-25T17:05:42;2.13;;;0.80;;
72379;SDS011;60354;47.798;12.472;2024-03-25T17:08:08;1.67;;;0.90;;
72379;SDS011;60354;47.798;12.472;2024-03-25T17:10:34;2.58;;;1.00;;
72379;SDS011;60354;47.798;12.472;2024-03-25T17:13:00;2.25;;;1.10;;
72379;SDS011;60354;47.798;12.472;2024-03-25T17:15:25;2.53;;;0.98;;
72379;SDS011;60354;47.798;12.472;2024-03-25T17:17:51;6.35;;;2.47;;
72379;SDS011;60354;47.798;12.472;2024-03-25T17:20:17;1.80;;;1.10;;
72379;SDS011;60354;47.798;12.472;2024-03-25T17:22:42;2.13;;;0.90;;
72379;SDS011;60354;47.798;12.472;2024-03-25T17:25:08;1.40;;;0.90;;
72379;SDS011;60354;47.798;12.472;2024-03-25T17:27:37;3.30;;;0.95;;
72379;SDS011;60354;47.798;12.472;2024-03-25T17:30:02;3.47;;;0.98;;
72379;SDS011;60354;47.798;12.472;2024-03-25T17:32:29;1.88;;;0.90;;